createdAt,value
2022-12-26T00:02:16.795Z,12.45
2022-12-26T00:04:48.808Z,18.08
2022-12-26T00:07:19.740Z,15.80
2022-12-26T00:09:46.934Z,15.93
2022-12-26T00:12:14.098Z,17.17
2022-12-26T00:14:41.312Z,13.10
2022-12-26T00:17:08.412Z,17.42
2022-12-26T00:19:35.606Z,15.27
2022-12-26T00:22:02.726Z,13.45
2022-12-26T00:24:29.922Z,19.67
2022-12-26T00:26:57.031Z,18.00
2022-12-26T00:29:24.335Z,16.70
2022-12-26T00:31:51.554Z,16.42
2022-12-26T00:34:18.742Z,14.38
2022-12-26T00:36:45.842Z,17.73
2022-12-26T00:39:13.141Z,16.30
2022-12-26T00:41:40.288Z,16.50
2022-12-26T00:44:07.422Z,12.57
2022-12-26T00:46:34.506Z,14.40
2022-12-26T00:49:01.815Z,13.90
2022-12-26T00:51:28.970Z,14.93
2022-12-26T00:53:56.140Z,13.25
2022-12-26T00:56:23.374Z,17.90
2022-12-26T00:58:50.653Z,12.80
2022-12-26T01:01:19.624Z,13.48
2022-12-26T01:03:47.357Z,18.38
2022-12-26T01:06:14.853Z,18.75
2022-12-26T01:08:42.383Z,17.00
2022-12-26T01:11:11.269Z,21.65
2022-12-26T01:13:38.391Z,22.25
2022-12-26T01:16:06.221Z,20.33
2022-12-26T01:18:33.581Z,19.25
2022-12-26T01:21:01.766Z,17.02
2022-12-26T01:23:28.910Z,24.30
2022-12-26T01:26:18.576Z,17.05
2022-12-26T01:28:43.201Z,15.00
2022-12-26T01:31:10.431Z,14.93
2022-12-26T01:33:37.670Z,20.33
2022-12-26T01:36:04.953Z,14.15
2022-12-26T01:38:32.153Z,18.83
2022-12-26T01:41:17.872Z,20.50
2022-12-26T01:43:58.420Z,20.33
2022-12-26T01:46:28.815Z,16.98
2022-12-26T01:48:57.529Z,18.65
2022-12-26T01:51:27.406Z,20.75
2022-12-26T01:53:55.995Z,18.02
2022-12-26T01:56:44.299Z,16.52
2022-12-26T01:59:18.755Z,19.05
2022-12-26T02:01:46.275Z,17.95
2022-12-26T02:04:38.971Z,20.92
2022-12-26T02:07:06.661Z,18.80
2022-12-26T02:09:33.996Z,23.50
2022-12-26T02:12:36.437Z,19.88
2022-12-26T02:15:00.562Z,17.92
2022-12-26T02:17:28.209Z,22.42
2022-12-26T02:19:59.263Z,20.58
2022-12-26T02:22:26.385Z,17.73
2022-12-26T02:24:56.584Z,19.25
2022-12-26T02:27:33.296Z,21.63
2022-12-26T02:30:10.293Z,20.67
2022-12-26T02:32:37.397Z,21.42
2022-12-26T02:35:26.694Z,27.88
2022-12-26T02:38:09.129Z,21.73
2022-12-26T02:40:48.563Z,28.40
2022-12-26T02:43:15.691Z,24.60
2022-12-26T02:46:20.592Z,26.85
2022-12-26T02:48:50.995Z,22.88
2022-12-26T02:51:45.018Z,24.75
2022-12-26T02:54:54.196Z,31.23
2022-12-26T02:57:42.831Z,23.73
2022-12-26T03:00:29.065Z,29.48
2022-12-26T03:03:18.189Z,26.55
2022-12-26T03:06:07.214Z,27.05
2022-12-26T03:08:54.697Z,29.92
2022-12-26T03:11:42.884Z,26.63
2022-12-26T03:14:25.598Z,29.45
2022-12-26T03:17:15.848Z,33.38
2022-12-26T03:19:58.351Z,32.53
2022-12-26T03:22:31.531Z,24.80
2022-12-26T03:25:22.304Z,27.23
2022-12-26T03:27:49.399Z,26.50
2022-12-26T03:30:35.167Z,26.00
2022-12-26T03:33:02.423Z,22.92
2022-12-26T03:35:31.836Z,28.75
2022-12-26T03:37:58.984Z,24.40
2022-12-26T03:41:00.041Z,24.83
2022-12-26T03:44:00.939Z,30.20
2022-12-26T03:46:46.804Z,26.25
2022-12-26T03:49:52.725Z,26.52
2022-12-26T03:52:47.925Z,24.63
2022-12-26T03:55:50.689Z,26.20
2022-12-26T03:58:43.569Z,25.98
2022-12-26T04:01:31.970Z,28.67
2022-12-26T04:04:18.871Z,26.58
2022-12-26T04:07:07.537Z,24.25
2022-12-26T04:10:02.922Z,28.80
2022-12-26T04:12:49.382Z,25.65
2022-12-26T04:15:39.433Z,23.05
2022-12-26T04:18:28.805Z,22.33
2022-12-26T04:21:34.598Z,26.75
2022-12-26T04:24:23.687Z,28.35
2022-12-26T04:27:12.319Z,28.00
2022-12-26T04:29:58.488Z,26.20
2022-12-26T04:33:02.399Z,27.70
2022-12-26T04:35:54.319Z,28.63
2022-12-26T04:38:43.547Z,29.83
2022-12-26T04:41:31.485Z,32.60
2022-12-26T04:44:05.934Z,28.85
2022-12-26T04:46:34.540Z,31.33
2022-12-26T04:49:22.842Z,33.00
2022-12-26T04:51:50.320Z,33.83
2022-12-26T04:54:17.829Z,33.38
2022-12-26T04:56:45.034Z,33.60
2022-12-26T04:59:12.188Z,37.60
2022-12-26T05:01:57.939Z,34.30
2022-12-26T05:04:43.743Z,32.22
2022-12-26T05:07:49.494Z,32.55
2022-12-26T05:10:21.026Z,35.70
2022-12-26T05:12:48.492Z,37.75
2022-12-26T05:15:15.712Z,41.17
2022-12-26T05:18:01.580Z,36.95
2022-12-26T05:20:47.435Z,36.67
2022-12-26T05:23:40.625Z,40.17
2022-12-26T05:26:33.258Z,33.72
2022-12-26T05:29:01.174Z,33.45
2022-12-26T05:31:34.724Z,39.95
2022-12-26T05:34:05.854Z,30.00
2022-12-26T05:36:52.626Z,37.90
2022-12-26T05:39:19.901Z,36.05
2022-12-26T05:41:47.077Z,35.30
2022-12-26T05:44:14.249Z,36.63
2022-12-26T05:46:44.333Z,31.77
2022-12-26T05:49:11.611Z,37.22
2022-12-26T05:51:38.959Z,35.28
2022-12-26T05:54:06.153Z,39.67
2022-12-26T05:56:33.247Z,33.42
2022-12-26T05:59:01.194Z,32.47
2022-12-26T06:01:29.431Z,35.65
2022-12-26T06:03:57.921Z,31.55
2022-12-26T06:06:25.720Z,35.65
2022-12-26T06:08:53.857Z,35.75
2022-12-26T06:11:21.557Z,33.17
2022-12-26T06:13:48.799Z,32.53
2022-12-26T06:16:16.945Z,29.95
2022-12-26T06:18:44.339Z,32.80
2022-12-26T06:21:13.096Z,31.20
2022-12-26T06:23:40.629Z,28.33
2022-12-26T06:26:10.024Z,31.25
2022-12-26T06:28:37.525Z,27.13
2022-12-26T06:31:06.337Z,23.45
2022-12-26T06:33:33.528Z,27.23
2022-12-26T06:36:06.691Z,27.88
2022-12-26T06:38:33.935Z,26.45
2022-12-26T06:41:01.150Z,25.58
2022-12-26T06:43:28.398Z,32.08
2022-12-26T06:45:59.099Z,25.60
2022-12-26T06:48:26.251Z,26.75
2022-12-26T06:50:56.545Z,28.05
2022-12-26T06:53:24.644Z,27.33
2022-12-26T06:55:53.273Z,29.00
2022-12-26T06:58:20.371Z,27.90
2022-12-26T07:00:47.729Z,27.88
2022-12-26T07:03:14.905Z,31.13
2022-12-26T07:05:42.071Z,29.90
2022-12-26T07:08:09.153Z,33.72
2022-12-26T07:10:37.000Z,30.75
2022-12-26T07:13:04.147Z,30.65
2022-12-26T07:15:31.828Z,34.10
2022-12-26T07:17:58.947Z,32.40
2022-12-26T07:20:26.060Z,35.05
2022-12-26T07:22:54.817Z,32.03
2022-12-26T07:25:21.896Z,37.58
2022-12-26T07:27:49.017Z,36.22
2022-12-26T07:30:16.386Z,27.25
2022-12-26T07:32:43.607Z,28.65
2022-12-26T07:35:10.779Z,29.67
2022-12-26T07:37:37.885Z,31.95
2022-12-26T07:40:05.295Z,32.50
2022-12-26T07:42:32.436Z,32.25
2022-12-26T07:44:59.498Z,31.20
2022-12-26T07:47:26.606Z,33.63
2022-12-26T07:49:53.752Z,34.97
2022-12-26T07:52:21.484Z,26.58
2022-12-26T07:54:48.608Z,28.83
2022-12-26T07:57:46.881Z,30.83
2022-12-26T08:00:03.064Z,28.67
2022-12-26T08:02:30.469Z,25.60
2022-12-26T08:04:57.709Z,21.50
2022-12-26T08:07:24.972Z,31.45
2022-12-26T08:09:52.253Z,22.92
2022-12-26T08:12:21.637Z,26.83
2022-12-26T08:14:48.832Z,21.13
2022-12-26T08:17:15.924Z,20.80
2022-12-26T08:19:43.117Z,19.67
2022-12-26T08:22:10.254Z,27.27
2022-12-26T08:24:37.332Z,19.42
2022-12-26T08:27:04.881Z,24.58
2022-12-26T08:29:31.949Z,23.27
2022-12-26T08:31:59.172Z,19.15
2022-12-26T08:34:26.334Z,22.73
2022-12-26T08:36:53.526Z,18.13
2022-12-26T08:39:20.621Z,16.80
2022-12-26T08:41:47.706Z,20.02
2022-12-26T08:44:32.903Z,18.00
2022-12-26T08:47:00.034Z,21.80
2022-12-26T08:49:27.183Z,15.35
2022-12-26T08:51:54.300Z,14.75
2022-12-26T08:54:21.469Z,15.98
2022-12-26T08:56:48.535Z,14.75
2022-12-26T08:59:15.659Z,12.32
2022-12-26T09:01:42.864Z,14.02
2022-12-26T09:04:10.119Z,12.48
2022-12-26T09:06:37.938Z,14.95
2022-12-26T09:09:05.768Z,13.32
2022-12-26T09:11:33.213Z,13.57
2022-12-26T09:14:01.529Z,13.13
2022-12-26T09:16:39.955Z,11.40
2022-12-26T09:19:12.419Z,12.70
2022-12-26T09:21:40.007Z,11.00
2022-12-26T09:24:08.973Z,11.05
2022-12-26T09:26:36.296Z,9.68
2022-12-26T09:29:03.447Z,7.35
2022-12-26T09:31:32.352Z,11.23
2022-12-26T09:33:59.779Z,7.93
2022-12-26T09:36:29.043Z,9.43
2022-12-26T09:38:57.706Z,7.78
2022-12-26T09:41:36.987Z,7.32
2022-12-26T09:44:07.459Z,6.40
2022-12-26T09:46:34.589Z,5.38
2022-12-26T09:49:05.298Z,8.85
2022-12-26T09:51:34.160Z,6.97
2022-12-26T09:54:02.472Z,3.80
2022-12-26T09:59:20.297Z,7.38
2022-12-26T10:01:50.965Z,7.40
2022-12-26T10:04:25.104Z,9.23
2022-12-26T10:07:14.704Z,2.83
2022-12-26T10:09:57.643Z,9.65
2022-12-26T10:12:54.504Z,11.43
2022-12-26T10:15:42.138Z,14.30
2022-12-26T10:18:18.886Z,12.20
2022-12-26T10:21:05.159Z,8.48
2022-12-26T10:23:33.867Z,7.43
2022-12-26T10:26:07.028Z,7.82
2022-12-26T10:28:50.385Z,9.68
2022-12-26T10:31:23.606Z,4.78
2022-12-26T10:33:56.315Z,6.03
2022-12-26T10:36:30.370Z,6.68
2022-12-26T10:39:04.742Z,4.43
2022-12-26T10:41:38.770Z,5.00
2022-12-26T10:44:06.176Z,2.95
2022-12-26T10:46:57.409Z,5.13
2022-12-26T10:49:28.873Z,8.70
2022-12-26T10:51:57.403Z,9.43
2022-12-26T10:54:25.021Z,6.13
2022-12-26T10:56:53.127Z,2.72
2022-12-26T10:59:26.239Z,1.67
2022-12-26T11:01:53.692Z,3.67
2022-12-26T11:07:13.080Z,4.88
2022-12-26T11:09:42.617Z,8.18
2022-12-26T11:12:25.389Z,6.13
2022-12-26T11:15:01.075Z,10.40
2022-12-26T11:17:32.923Z,3.35
2022-12-26T11:20:12.421Z,5.00
2022-12-26T11:22:42.834Z,3.38
2022-12-26T11:25:10.177Z,6.90
2022-12-26T11:27:38.936Z,5.43
2022-12-26T11:30:16.295Z,2.78
2022-12-26T11:32:44.970Z,3.58
2022-12-26T11:35:18.608Z,2.70
2022-12-26T11:37:52.185Z,7.30
2022-12-26T11:40:20.941Z,9.30
2022-12-26T11:42:58.926Z,8.45
2022-12-26T11:45:35.515Z,5.38
2022-12-26T11:48:09.283Z,3.55
2022-12-26T11:50:47.212Z,5.43
2022-12-26T11:53:17.790Z,6.50
2022-12-26T11:55:45.504Z,4.75
2022-12-26T11:58:13.017Z,11.23
2022-12-26T12:00:41.519Z,6.57
2022-12-26T12:03:13.556Z,7.72
2022-12-26T12:05:41.162Z,10.13
2022-12-26T12:08:33.622Z,5.32
2022-12-26T12:11:13.531Z,9.50
2022-12-26T12:13:55.945Z,6.68
2022-12-26T12:16:42.879Z,6.95
2022-12-26T12:19:19.002Z,5.30
2022-12-26T12:21:48.973Z,2.53
2022-12-26T12:24:30.112Z,8.85
2022-12-26T12:27:20.903Z,7.43
2022-12-26T12:29:57.054Z,5.55
2022-12-26T12:32:24.196Z,5.95
2022-12-26T12:35:01.015Z,6.43
2022-12-26T12:37:47.196Z,4.95
2022-12-26T12:40:20.003Z,6.00
2022-12-26T12:43:05.567Z,2.88
2022-12-26T12:45:38.950Z,9.20
2022-12-26T12:48:26.161Z,8.60
2022-12-26T12:50:56.776Z,10.15
2022-12-26T12:53:30.396Z,5.22
2022-12-26T12:56:00.305Z,3.55
2022-12-26T12:58:27.467Z,5.50
2022-12-26T13:01:00.314Z,5.93
2022-12-26T13:03:36.092Z,4.57
2022-12-26T13:06:14.728Z,4.57
2022-12-26T13:08:46.708Z,7.72
2022-12-26T13:13:53.890Z,7.15
2022-12-26T13:16:24.711Z,6.13
2022-12-26T13:19:05.887Z,9.40
2022-12-26T13:21:36.425Z,8.50
2022-12-26T13:24:24.371Z,12.50
2022-12-26T13:26:54.558Z,4.68
2022-12-26T13:29:30.180Z,11.40
2022-12-26T13:31:58.992Z,6.20
2022-12-26T13:34:26.215Z,5.05
2022-12-26T13:36:55.698Z,4.13
2022-12-26T13:39:25.794Z,7.60
2022-12-26T13:42:15.919Z,11.60
2022-12-26T13:44:43.253Z,11.43
2022-12-26T13:47:29.032Z,3.67
2022-12-26T13:49:56.168Z,14.20
2022-12-26T13:52:23.622Z,6.38
2022-12-26T13:54:51.478Z,15.48
2022-12-26T13:57:21.735Z,20.45
2022-12-26T13:59:48.870Z,7.75
2022-12-26T14:02:49.801Z,6.93
2022-12-26T14:05:21.087Z,9.88
2022-12-26T14:08:06.721Z,2.50
2022-12-26T14:10:33.849Z,3.35
2022-12-26T14:13:01.030Z,7.00
2022-12-26T14:15:35.577Z,5.10
2022-12-26T14:18:05.699Z,7.57
2022-12-26T14:20:44.889Z,8.02
2022-12-26T14:23:12.008Z,8.30
2022-12-26T14:25:50.517Z,9.05
2022-12-26T14:28:33.709Z,7.85
2022-12-26T14:31:03.971Z,21.55
2022-12-26T14:33:33.857Z,6.70
2022-12-26T14:36:19.956Z,5.32
2022-12-26T14:39:10.591Z,5.28
2022-12-26T14:42:35.810Z,5.45
2022-12-26T14:45:03.903Z,6.63
2022-12-26T14:47:38.979Z,6.28
2022-12-26T14:50:26.277Z,3.67
2022-12-26T14:52:53.496Z,5.40
2022-12-26T14:55:39.268Z,5.13
2022-12-26T14:58:21.702Z,11.43
2022-12-26T15:00:48.938Z,10.02
2022-12-26T15:03:16.088Z,8.77
2022-12-26T15:05:44.278Z,7.07
2022-12-26T15:08:11.446Z,5.13
2022-12-26T15:10:47.784Z,6.43
2022-12-26T15:13:41.499Z,9.27
2022-12-26T15:16:27.080Z,7.38
2022-12-26T15:19:13.017Z,10.65
2022-12-26T15:21:59.085Z,8.68
2022-12-26T15:25:17.730Z,9.25
2022-12-26T15:27:31.635Z,13.65
2022-12-26T15:30:17.744Z,8.32
2022-12-26T15:32:50.209Z,12.00
2022-12-26T15:35:21.906Z,11.88
2022-12-26T15:38:16.122Z,4.28
2022-12-26T15:40:45.352Z,5.38
2022-12-26T15:43:21.319Z,6.03
2022-12-26T15:46:01.714Z,5.07
2022-12-26T15:48:47.535Z,10.38
2022-12-26T15:51:16.584Z,9.85
2022-12-26T15:54:13.798Z,5.15
2022-12-26T15:56:47.290Z,8.75
2022-12-26T15:59:26.536Z,11.07
2022-12-26T16:01:53.939Z,5.70
2022-12-26T16:04:27.272Z,10.55
2022-12-26T16:07:09.413Z,6.20
2022-12-26T16:09:39.311Z,6.90
2022-12-26T16:12:19.139Z,11.82
2022-12-26T16:14:46.294Z,5.72
2022-12-26T16:17:16.117Z,14.75
2022-12-26T16:19:44.334Z,16.90
2022-12-26T16:22:43.781Z,14.27
2022-12-26T16:25:12.880Z,10.85
2022-12-26T16:27:40.174Z,10.07
2022-12-26T16:30:12.107Z,5.25
2022-12-26T16:32:42.050Z,6.57
2022-12-26T16:35:17.114Z,7.40
2022-12-26T16:37:48.638Z,10.15
2022-12-26T16:40:20.779Z,11.10
2022-12-26T16:45:19.624Z,5.75
2022-12-26T16:47:47.306Z,4.97
2022-12-26T16:50:18.724Z,12.00
2022-12-26T16:52:47.074Z,12.52
2022-12-26T16:55:23.477Z,5.95
2022-12-26T16:57:52.266Z,8.85
2022-12-26T17:00:21.179Z,4.25
2022-12-26T17:02:50.193Z,4.63
2022-12-26T17:05:26.050Z,9.43
2022-12-26T17:07:54.505Z,9.10
2022-12-26T17:10:44.705Z,7.20
2022-12-26T17:13:17.617Z,9.57
2022-12-26T17:15:53.675Z,10.60
2022-12-26T17:18:50.243Z,8.65
2022-12-26T17:21:17.444Z,8.07
2022-12-26T17:23:44.599Z,9.50
2022-12-26T17:26:20.571Z,7.82
2022-12-26T17:28:47.911Z,6.60
2022-12-26T17:31:34.044Z,6.28
2022-12-26T17:34:03.091Z,4.65
2022-12-26T17:37:16.511Z,7.50
2022-12-26T17:39:21.251Z,3.17
2022-12-26T17:41:58.435Z,3.05
2022-12-26T17:44:39.587Z,8.52
2022-12-26T17:47:26.250Z,8.38
2022-12-26T17:49:53.970Z,4.05
2022-12-26T17:52:29.236Z,5.00
2022-12-26T17:54:59.744Z,6.95
2022-12-26T17:57:27.727Z,4.68
2022-12-26T17:59:55.427Z,7.40
2022-12-26T18:02:22.753Z,2.58
2022-12-26T18:04:50.509Z,7.40
2022-12-26T18:07:28.877Z,6.15
2022-12-26T18:09:58.135Z,7.97
2022-12-26T18:12:25.346Z,9.65
2022-12-26T18:14:57.526Z,7.30
2022-12-26T18:17:28.472Z,9.85
2022-12-26T18:19:57.664Z,5.35
2022-12-26T18:22:24.937Z,4.32
2022-12-26T18:24:52.040Z,5.80
2022-12-26T18:27:21.521Z,4.65
2022-12-26T18:29:50.288Z,6.07
2022-12-26T18:32:23.607Z,5.38
2022-12-26T18:34:50.891Z,5.07
2022-12-26T18:37:18.220Z,4.78
2022-12-26T18:39:45.383Z,4.97
2022-12-26T18:42:13.760Z,5.15
2022-12-26T18:44:42.036Z,7.63
2022-12-26T18:47:16.711Z,11.90
2022-12-26T18:49:43.939Z,7.68
2022-12-26T18:52:11.785Z,8.43
2022-12-26T18:54:44.984Z,6.95
2022-12-26T18:57:15.897Z,9.23
2022-12-26T18:59:43.033Z,8.23
2022-12-26T19:02:17.140Z,8.40
2022-12-26T19:04:44.465Z,6.72
2022-12-26T19:07:12.908Z,8.35
2022-12-26T19:09:42.939Z,3.58
2022-12-26T19:12:10.117Z,11.15
2022-12-26T19:14:37.224Z,6.43
2022-12-26T19:17:04.442Z,9.35
2022-12-26T19:19:31.704Z,6.80
2022-12-26T19:21:58.858Z,7.43
2022-12-26T19:24:26.039Z,5.60
2022-12-26T19:26:53.158Z,6.13
2022-12-26T19:29:20.256Z,7.97
2022-12-26T19:31:47.672Z,14.77
2022-12-26T19:34:14.931Z,7.65
2022-12-26T19:36:42.086Z,5.70
2022-12-26T19:39:09.345Z,11.80
2022-12-26T19:41:36.506Z,4.40
2022-12-26T19:44:03.664Z,8.10
2022-12-26T19:46:30.816Z,5.78
2022-12-26T19:48:58.052Z,10.73
2022-12-26T19:51:25.395Z,4.97
2022-12-26T19:53:52.457Z,6.80
2022-12-26T19:56:24.457Z,9.10
2022-12-26T20:01:25.418Z,8.25
2022-12-26T20:03:56.211Z,6.47
2022-12-26T20:06:24.109Z,5.75
2022-12-26T20:08:51.864Z,8.88
2022-12-26T20:11:23.217Z,11.45
2022-12-26T20:13:50.433Z,7.25
2022-12-26T20:17:02.709Z,8.90
2022-12-26T20:19:06.546Z,10.23
2022-12-26T20:21:33.618Z,9.45
2022-12-26T20:24:01.318Z,7.90
2022-12-26T20:26:29.255Z,3.55
2022-12-26T20:28:57.585Z,6.72
2022-12-26T20:31:24.725Z,10.00
2022-12-26T20:33:52.348Z,5.97
2022-12-26T20:36:24.555Z,7.93
2022-12-26T20:38:52.893Z,3.88
2022-12-26T20:41:20.436Z,8.15
2022-12-26T20:43:48.704Z,10.25
2022-12-26T20:46:17.793Z,8.85
2022-12-26T20:48:45.431Z,7.00
2022-12-26T20:51:13.761Z,7.30
2022-12-26T20:53:40.869Z,14.32
2022-12-26T20:56:08.568Z,8.93
2022-12-26T20:58:36.133Z,6.60
2022-12-26T21:01:05.388Z,9.18
2022-12-26T21:03:33.049Z,6.38
2022-12-26T21:06:19.911Z,7.72
2022-12-26T21:08:48.768Z,6.72
2022-12-26T21:11:17.364Z,3.63
2022-12-26T21:13:45.640Z,4.25
2022-12-26T21:16:12.793Z,8.45
2022-12-26T21:18:40.488Z,8.32
2022-12-26T21:21:08.874Z,4.80
2022-12-26T21:23:36.999Z,5.68
2022-12-26T21:26:04.726Z,9.68
2022-12-26T21:28:32.022Z,4.80
2022-12-26T21:30:59.594Z,4.35
2022-12-26T21:33:26.885Z,7.82
2022-12-26T21:35:54.971Z,5.28
2022-12-26T21:38:23.031Z,4.45
2022-12-26T21:40:50.666Z,6.95
2022-12-26T21:43:17.746Z,3.58
2022-12-26T21:45:45.005Z,9.18
2022-12-26T21:48:12.188Z,3.63
2022-12-26T21:50:39.364Z,5.20
2022-12-26T21:53:06.950Z,4.25
2022-12-26T21:55:37.782Z,2.97
2022-12-26T21:58:07.442Z,3.08
2022-12-26T22:00:35.474Z,8.52
2022-12-26T22:03:22.119Z,5.63
2022-12-26T22:05:49.338Z,8.93
2022-12-26T22:08:16.541Z,8.90
2022-12-26T22:11:03.547Z,2.50
2022-12-26T22:13:32.229Z,2.63
2022-12-26T22:16:05.506Z,8.32
2022-12-26T22:18:37.525Z,6.13
2022-12-26T22:21:09.547Z,9.38
2022-12-26T22:23:37.328Z,5.60
2022-12-26T22:26:05.015Z,2.78
2022-12-26T22:28:32.217Z,4.13
2022-12-26T22:30:59.698Z,7.60
2022-12-26T22:33:29.735Z,6.20
2022-12-26T22:36:04.186Z,5.53
2022-12-26T22:38:31.516Z,4.93
2022-12-26T22:40:59.914Z,8.43
2022-12-26T22:43:28.177Z,4.35
2022-12-26T22:45:55.605Z,7.05
2022-12-26T22:48:23.535Z,9.88
2022-12-26T22:50:54.331Z,7.13
2022-12-26T22:53:28.900Z,7.40
2022-12-26T22:56:00.117Z,3.83
2022-12-26T22:58:27.770Z,9.93
2022-12-26T23:00:54.868Z,3.80
2022-12-26T23:03:22.386Z,6.63
2022-12-26T23:05:49.665Z,6.82
2022-12-26T23:08:18.395Z,6.38
2022-12-26T23:10:46.423Z,4.55
2022-12-26T23:13:14.209Z,7.82
2022-12-26T23:15:48.607Z,3.90
2022-12-26T23:19:00.492Z,3.08
2022-12-26T23:21:38.736Z,3.73
2022-12-26T23:24:06.692Z,5.95
2022-12-26T23:26:33.991Z,3.65
2022-12-26T23:29:19.965Z,4.72
2022-12-26T23:31:47.087Z,3.08
2022-12-26T23:34:14.296Z,5.03
2022-12-26T23:36:41.507Z,5.75
2022-12-26T23:39:08.835Z,2.03
2022-12-26T23:41:35.962Z,3.22
2022-12-26T23:44:03.072Z,3.80
2022-12-26T23:46:30.259Z,2.47
2022-12-26T23:48:57.745Z,3.40
2022-12-26T23:51:24.933Z,6.55
2022-12-26T23:53:52.083Z,6.68
2022-12-26T23:56:19.545Z,2.60
2022-12-26T23:58:46.699Z,6.65
